Time;durP1;ratioP1;P1;durP2;ratioP2;P2;SDS_P1;SDS_P2;PMS_P1;PMS_P2;Temp;Humidity;BMP_temperature;BMP_pressure;BME280_temperature;BME280_humidity;BME280_pressure;Samples;Min_cycle;Max_cycle;Signal;HPM_P1;HPM_P2
2023/03/15 00:01:40;;;;;;;9.35;1.75;;;2.20;99.90;;;;;;5095172;27;20039;-84
2023/03/15 00:04:05;;;;;;;7.00;1.48;;;2.70;99.90;;;;;;5102326;28;20047;-83
2023/03/15 00:06:35;;;;;;;5.97;1.58;;;2.70;99.90;;;;;;5088820;28;20032;-83
2023/03/15 00:09:01;;;;;;;10.38;2.15;;;2.70;99.90;;;;;;5110821;27;20042;-83
2023/03/15 00:11:29;;;;;;;10.07;2.20;;;2.70;99.90;;;;;;5140171;27;20035;-82
2023/03/15 00:13:56;;;;;;;6.38;1.30;;;2.80;99.90;;;;;;5108439;27;20050;-83
2023/03/15 00:16:25;;;;;;;5.57;1.38;;;2.80;99.90;;;;;;5110853;27;20040;-83
2023/03/15 00:18:52;;;;;;;6.53;1.10;;;2.80;99.90;;;;;;5116339;27;20055;-84
2023/03/15 00:21:18;;;;;;;5.68;1.13;;;2.70;99.90;;;;;;5105955;28;20115;-83
2023/03/15 00:23:43;;;;;;;5.18;1.52;;;2.60;99.90;;;;;;5107141;28;20162;-83
2023/03/15 00:26:09;;;;;;;4.32;1.10;;;2.60;99.90;;;;;;5095485;28;20044;-83
2023/03/15 00:50:49;;;;;;;8.18;1.30;;;2.10;99.90;;;;;;5106156;28;20037;-82
2023/03/15 00:53:14;;;;;;;7.97;1.17;;;2.10;99.90;;;;;;5118601;27;20043;-83
2023/03/15 00:55:41;;;;;;;3.47;0.95;;;2.10;99.90;;;;;;5120954;27;20419;-83
2023/03/15 00:58:07;;;;;;;6.83;1.10;;;2.00;99.90;;;;;;5088200;28;20084;-83
2023/03/15 01:00:32;;;;;;;6.72;1.08;;;2.00;99.90;;;;;;5107828;27;20119;-83
2023/03/15 01:02:58;;;;;;;3.60;1.00;;;1.90;99.90;;;;;;5105198;28;20039;-84
2023/03/15 01:05:25;;;;;;;4.93;1.07;;;1.90;99.90;;;;;;5091369;28;20035;-82
2023/03/15 01:07:51;;;;;;;8.77;1.45;;;1.90;99.90;;;;;;5102014;28;20560;-83
2023/03/15 01:10:19;;;;;;;4.43;1.00;;;2.00;99.90;;;;;;5091255;28;20076;-83
2023/03/15 01:12:44;;;;;;;5.23;0.93;;;2.00;99.90;;;;;;5089324;27;20532;-83
2023/03/15 01:15:13;;;;;;;5.45;1.10;;;2.10;99.90;;;;;;5137605;27;20043;-83
2023/03/15 01:17:39;;;;;;;7.65;1.00;;;2.10;99.90;;;;;;5088510;28;20047;-84
2023/03/15 01:20:06;;;;;;;3.97;1.33;;;2.10;99.90;;;;;;5092643;27;20087;-83
2023/03/15 01:22:31;;;;;;;10.32;1.00;;;2.10;99.90;;;;;;5114610;27;20042;-83
2023/03/15 01:24:57;;;;;;;4.93;1.10;;;2.10;99.90;;;;;;5104013;27;20032;-82
2023/03/15 01:27:22;;;;;;;3.63;1.02;;;2.10;99.90;;;;;;5106234;28;20035;-83
2023/03/15 01:29:48;;;;;;;7.82;1.60;;;2.00;99.90;;;;;;5142422;27;20031;-83
2023/03/15 01:32:13;;;;;;;5.07;0.97;;;2.00;99.90;;;;;;5091334;28;20034;-83
2023/03/15 01:34:39;;;;;;;7.72;1.42;;;1.90;99.90;;;;;;5108327;28;20055;-83
2023/03/15 01:37:05;;;;;;;6.10;0.90;;;1.80;99.90;;;;;;5102583;28;20106;-83
2023/03/15 01:39:30;;;;;;;6.57;1.10;;;1.80;99.90;;;;;;5107426;28;20073;-83
2023/03/15 01:41:56;;;;;;;6.33;1.07;;;1.70;99.90;;;;;;5089621;28;20035;-83
2023/03/15 01:44:23;;;;;;;7.13;1.05;;;1.70;99.90;;;;;;5103794;28;20032;-83
2023/03/15 01:46:49;;;;;;;2.63;0.70;;;1.70;99.90;;;;;;5105137;28;20042;-83
2023/03/15 01:49:32;;;;;;;6.50;0.90;;;1.70;99.90;;;;;;5099732;28;20411;-83
2023/03/15 01:52:03;;;;;;;3.77;1.00;;;1.60;99.90;;;;;;5098818;28;20494;-83
2023/03/15 01:54:32;;;;;;;5.27;1.10;;;1.60;99.90;;;;;;5100995;28;20407;-83
2023/03/15 01:57:07;;;;;;;6.93;1.20;;;1.60;99.90;;;;;;5107857;28;20060;-83
2023/03/15 01:59:37;;;;;;;6.47;1.03;;;1.60;99.90;;;;;;5083986;28;20093;-83
2023/03/15 02:02:04;;;;;;;5.53;0.97;;;1.50;99.90;;;;;;5090063;28;20039;-83
2023/03/15 02:04:41;;;;;;;5.50;1.20;;;1.50;99.90;;;;;;5089868;28;20043;-83
2023/03/15 02:07:08;;;;;;;7.83;1.30;;;1.40;99.90;;;;;;5076103;28;20077;-83
2023/03/15 02:09:46;;;;;;;6.00;1.00;;;2.20;99.90;;;;;;5105492;28;20460;-82
2023/03/15 02:12:11;;;;;;;5.33;1.20;;;1.40;99.90;;;;;;5110253;28;20500;-83
2023/03/15 02:14:38;;;;;;;7.57;1.17;;;1.40;99.90;;;;;;5109971;28;20059;-83
2023/03/15 02:17:03;;;;;;;5.60;1.03;;;1.30;99.90;;;;;;5103733;28;20044;-83
2023/03/15 02:19:44;;;;;;;7.80;1.67;;;1.40;99.90;;;;;;5094158;28;20081;-83
2023/03/15 02:22:44;;;;;;;6.50;1.10;;;1.40;99.90;;;;;;5093987;28;20047;-82
2023/03/15 02:25:55;;;;;;;7.07;1.63;;;1.40;99.90;;;;;;5085313;28;20067;-83
2023/03/15 02:28:21;;;;;;;7.70;1.07;;;1.40;99.90;;;;;;5120817;27;20032;-83
2023/03/15 02:30:47;;;;;;;4.27;0.93;;;1.40;99.90;;;;;;5111256;28;20035;-83
2023/03/15 02:33:39;;;;;;;5.83;1.30;;;1.30;99.90;;;;;;5090178;28;20214;-83
2023/03/15 02:36:21;;;;;;;5.10;1.20;;;1.30;99.90;;;;;;5108915;27;20514;-82
2023/03/15 02:38:48;;;;;;;6.50;1.13;;;1.30;99.90;;;;;;5105433;28;20407;-83
2023/03/15 02:41:18;;;;;;;4.57;0.97;;;1.30;99.90;;;;;;5103169;27;20039;-83
2023/03/15 02:43:46;;;;;;;4.57;1.00;;;1.30;99.90;;;;;;5112270;27;20043;-83
2023/03/15 02:46:12;;;;;;;5.47;1.00;;;1.20;99.90;;;;;;5093392;28;20047;-83
2023/03/15 02:48:41;;;;;;;8.40;1.20;;;1.20;99.90;;;;;;5098569;28;20111;-83
2023/03/15 02:51:06;;;;;;;4.73;0.80;;;1.20;99.90;;;;;;5108121;28;20038;-83
2023/03/15 02:53:32;;;;;;;5.40;0.90;;;1.10;99.90;;;;;;5083458;28;20040;-83
2023/03/15 02:55:58;;;;;;;2.70;0.60;;;1.10;99.90;;;;;;5138610;27;20024;-83
2023/03/15 02:58:24;;;;;;;6.87;1.10;;;1.00;99.90;;;;;;5102437;28;20616;-83
2023/03/15 03:00:51;;;;;;;7.80;1.57;;;1.10;99.90;;;;;;5107749;27;20154;-83
2023/03/15 03:03:16;;;;;;;4.00;0.70;;;1.00;99.90;;;;;;5117185;27;20028;-83
2023/03/15 03:05:42;;;;;;;5.47;1.07;;;1.00;99.90;;;;;;5109356;27;20090;-83
2023/03/15 03:08:07;;;;;;;4.00;0.93;;;1.00;99.90;;;;;;5140226;27;20050;-83
2023/03/15 03:10:33;;;;;;;6.80;1.10;;;0.90;99.90;;;;;;5117542;27;20035;-83
2023/03/15 03:12:58;;;;;;;5.37;0.80;;;0.90;99.90;;;;;;5114114;27;20118;-83
2023/03/15 03:15:24;;;;;;;3.90;0.83;;;0.90;99.90;;;;;;5113705;27;20562;-83
2023/03/15 03:17:49;;;;;;;6.03;1.27;;;0.80;99.90;;;;;;5107234;28;20134;-83
2023/03/15 03:20:15;;;;;;;4.60;0.70;;;0.80;99.90;;;;;;5093525;28;20031;-83
2023/03/15 03:22:43;;;;;;;5.27;0.80;;;0.70;99.90;;;;;;5132871;27;20079;-83
2023/03/15 03:25:09;;;;;;;3.13;0.77;;;0.70;99.90;;;;;;5109501;27;20035;-83
2023/03/15 03:27:35;;;;;;;2.40;0.87;;;0.70;99.90;;;;;;5108416;28;20528;-83
2023/03/15 03:30:08;;;;;;;3.67;0.83;;;0.70;99.90;;;;;;5105543;28;20039;-83
2023/03/15 03:32:34;;;;;;;5.87;1.20;;;0.70;99.90;;;;;;5134758;27;20097;-83
2023/03/15 03:35:00;;;;;;;6.30;1.20;;;0.70;99.90;;;;;;5106378;28;20035;-83
2023/03/15 03:37:26;;;;;;;3.93;1.00;;;0.80;99.90;;;;;;5110252;28;20517;-83
2023/03/15 03:39:51;;;;;;;3.80;0.93;;;0.80;99.90;;;;;;5094560;28;20035;-83
2023/03/15 03:42:17;;;;;;;5.97;0.80;;;0.80;99.90;;;;;;5088900;28;20402;-83
2023/03/15 03:44:42;;;;;;;6.70;1.20;;;0.70;99.90;;;;;;5108359;28;20415;-83
2023/03/15 03:47:08;;;;;;;3.27;0.93;;;0.70;99.90;;;;;;5107383;28;20161;-82
2023/03/15 03:49:33;;;;;;;7.50;1.13;;;0.70;99.90;;;;;;5085006;28;20089;-82
2023/03/15 03:52:00;;;;;;;5.67;1.03;;;0.70;99.90;;;;;;5136027;27;20059;-82
2023/03/15 03:54:26;;;;;;;6.90;1.40;;;0.70;99.90;;;;;;5102383;28;20032;-82
2023/03/15 03:56:52;;;;;;;6.97;1.20;;;0.70;99.90;;;;;;5094755;28;20043;-82
2023/03/15 03:59:17;;;;;;;6.77;1.43;;;0.70;99.90;;;;;;5117838;27;20032;-82
2023/03/15 04:01:43;;;;;;;3.90;1.00;;;0.70;99.90;;;;;;5109444;28;20093;-82
2023/03/15 04:04:12;;;;;;;5.47;1.10;;;0.80;99.90;;;;;;5115807;27;20467;-82
2023/03/15 04:06:44;;;;;;;6.13;1.53;;;0.70;99.90;;;;;;5101630;28;20039;-83
2023/03/15 04:09:12;;;;;;;6.03;1.20;;;0.70;99.90;;;;;;5109045;28;20036;-82
2023/03/15 04:11:41;;;;;;;5.63;1.00;;;0.70;99.90;;;;;;5104126;27;20036;-83
2023/03/15 04:14:11;;;;;;;4.97;0.90;;;0.70;99.90;;;;;;5136277;27;20510;-82
2023/03/15 04:16:37;;;;;;;3.90;0.83;;;0.70;99.90;;;;;;5102944;28;20035;-83
2023/03/15 04:19:03;;;;;;;4.67;0.87;;;0.70;99.90;;;;;;5129115;27;20084;-83
2023/03/15 04:21:30;;;;;;;7.63;0.93;;;0.70;99.90;;;;;;5114268;27;20039;-82
2023/03/15 04:24:06;;;;;;;9.10;1.70;;;0.60;99.90;;;;;;5125287;27;20139;-83
2023/03/15 04:26:33;;;;;;;3.93;0.97;;;0.60;99.90;;;;;;5103692;28;20036;-82
2023/03/15 04:28:58;;;;;;;7.63;0.90;;;0.60;99.90;;;;;;5104933;28;20042;-82
2023/03/15 04:31:27;;;;;;;5.03;0.93;;;0.50;99.90;;;;;;5107923;28;20036;-82
2023/03/15 04:33:53;;;;;;;6.07;1.53;;;0.50;99.90;;;;;;5088150;28;20039;-83
2023/03/15 04:36:20;;;;;;;3.33;0.70;;;0.50;99.90;;;;;;5126978;27;20041;-82
2023/03/15 04:38:46;;;;;;;4.87;0.80;;;0.40;99.90;;;;;;5128658;27;20040;-83
2023/03/15 04:41:17;;;;;;;4.67;0.90;;;0.40;99.90;;;;;;5103769;28;20041;-83
2023/03/15 04:43:42;;;;;;;4.90;1.13;;;0.40;99.90;;;;;;5095896;28;20032;-83
2023/03/15 04:46:08;;;;;;;4.57;0.80;;;0.30;99.90;;;;;;5108307;28;20380;-83
2023/03/15 04:48:34;;;;;;;4.60;1.10;;;0.30;99.90;;;;;;5106223;28;20032;-83
2023/03/15 04:51:00;;;;;;;7.40;1.20;;;0.20;99.90;;;;;;5110637;27;20036;-83
2023/03/15 04:53:25;;;;;;;5.37;1.83;;;0.20;99.90;;;;;;5110136;27;20038;-83
2023/03/15 04:55:51;;;;;;;5.27;0.90;;;0.20;99.90;;;;;;5103040;27;20032;-83
2023/03/15 04:58:17;;;;;;;8.47;1.10;;;0.20;99.90;;;;;;5111306;28;20027;-83
2023/03/15 05:00:43;;;;;;;3.57;0.90;;;0.20;99.90;;;;;;5139105;27;20099;-82
2023/03/15 05:03:08;;;;;;;4.90;0.70;;;0.20;99.90;;;;;;5129761;27;20496;-84
2023/03/15 05:05:34;;;;;;;6.43;0.77;;;0.10;99.90;;;;;;5102585;28;20516;-84
2023/03/15 05:08:00;;;;;;;5.00;1.00;;;0.20;99.90;;;;;;5084964;28;20043;-83
2023/03/15 05:10:28;;;;;;;4.23;0.80;;;0.10;99.90;;;;;;5112789;27;20084;-83
2023/03/15 05:12:54;;;;;;;3.23;0.90;;;0.10;99.90;;;;;;5103126;28;20050;-84
2023/03/15 05:15:19;;;;;;;3.07;0.70;;;0.50;99.90;;;;;;5090313;28;20411;-84
2023/03/15 05:17:45;;;;;;;3.67;0.90;;;0.10;99.90;;;;;;5104792;28;20093;-83
2023/03/15 05:20:12;;;;;;;4.77;0.87;;;0.10;99.90;;;;;;5111046;28;20040;-83
2023/03/15 05:22:38;;;;;;;5.27;0.93;;;0.10;99.90;;;;;;5104738;28;20035;-83
2023/03/15 05:25:04;;;;;;;3.73;0.77;;;0.00;99.90;;;;;;5101767;28;20690;-84
2023/03/15 05:27:32;;;;;;;4.57;1.20;;;0.00;99.90;;;;;;5107041;28;20042;-84
2023/03/15 05:29:58;;;;;;;4.63;1.00;;;0.00;99.90;;;;;;5086667;28;20063;-84
2023/03/15 05:32:25;;;;;;;4.20;0.97;;;0.00;99.90;;;;;;5117313;27;20040;-84
2023/03/15 05:34:53;;;;;;;2.50;0.80;;;0.00;99.90;;;;;;5103676;28;20445;-83
2023/03/15 05:37:20;;;;;;;5.37;0.70;;;0.00;99.90;;;;;;5111829;28;20036;-85
2023/03/15 05:39:46;;;;;;;9.07;1.40;;;0.00;99.90;;;;;;5103598;28;20040;-84
2023/03/15 05:42:12;;;;;;;5.10;0.83;;;0.10;99.90;;;;;;5136665;27;20533;-84
2023/03/15 05:44:37;;;;;;;6.37;1.30;;;0.10;99.90;;;;;;5110308;27;20035;-84
2023/03/15 05:47:03;;;;;;;8.03;1.30;;;0.20;99.90;;;;;;5091312;28;20118;-84
2023/03/15 05:49:28;;;;;;;5.93;1.10;;;0.20;99.90;;;;;;5101942;27;20036;-84
2023/03/15 05:51:54;;;;;;;6.53;1.43;;;0.20;99.90;;;;;;5097533;28;20508;-85
2023/03/15 05:54:19;;;;;;;3.77;1.07;;;0.30;99.90;;;;;;5123028;27;20123;-83
2023/03/15 05:56:45;;;;;;;4.57;1.23;;;0.30;99.90;;;;;;5107903;28;20410;-85
2023/03/15 05:59:11;;;;;;;5.80;1.40;;;0.30;99.90;;;;;;5128905;27;20040;-84
2023/03/15 06:01:36;;;;;;;7.07;1.07;;;0.40;99.90;;;;;;5090354;28;20047;-83
2023/03/15 06:04:02;;;;;;;9.53;1.40;;;0.40;99.90;;;;;;5110518;28;20043;-84
2023/03/15 06:06:27;;;;;;;5.33;1.30;;;0.40;99.90;;;;;;5109644;27;20098;-84
2023/03/15 06:08:53;;;;;;;11.70;1.20;;;0.40;99.90;;;;;;5111730;28;20118;-84
2023/03/15 06:11:19;;;;;;;5.87;1.03;;;0.40;99.90;;;;;;5103399;28;20043;-84
2023/03/15 06:13:44;;;;;;;5.00;1.30;;;0.40;99.90;;;;;;5117122;27;20059;-84
2023/03/15 06:16:10;;;;;;;7.87;1.10;;;0.40;99.90;;;;;;5088115;27;20056;-84
2023/03/15 06:18:36;;;;;;;8.00;1.20;;;0.40;99.90;;;;;;5106719;27;20528;-84
2023/03/15 06:21:01;;;;;;;10.73;1.17;;;0.40;99.90;;;;;;5108094;27;20130;-84
2023/03/15 06:23:27;;;;;;;7.70;2.30;;;0.40;99.90;;;;;;5089062;28;20056;-85
2023/03/15 06:25:52;;;;;;;5.87;1.57;;;0.40;99.90;;;;;;5133371;27;20040;-84
2023/03/15 06:28:18;;;;;;;3.07;1.10;;;0.40;99.90;;;;;;5093829;28;20402;-84
2023/03/15 06:30:43;;;;;;;4.93;1.33;;;0.30;99.90;;;;;;5078543;28;20044;-84
2023/03/15 06:33:09;;;;;;;6.43;1.10;;;0.40;99.90;;;;;;5107164;28;20032;-85
2023/03/15 06:35:34;;;;;;;5.60;1.10;;;0.30;99.90;;;;;;5123847;27;20043;-85
2023/03/15 06:38:00;;;;;;;3.70;1.10;;;0.30;99.90;;;;;;5105007;28;20034;-86
2023/03/15 06:40:25;;;;;;;7.17;1.97;;;0.40;99.90;;;;;;5108270;28;20038;-87
2023/03/15 06:42:51;;;;;;;4.53;1.10;;;0.40;99.90;;;;;;5109155;28;20036;-86
2023/03/15 06:45:17;;;;;;;4.37;0.90;;;0.40;99.90;;;;;;5089206;28;20089;-86
2023/03/15 06:47:42;;;;;;;7.83;1.43;;;0.40;99.90;;;;;;5087693;28;20032;-86
2023/03/15 06:50:09;;;;;;;5.07;1.03;;;0.60;99.90;;;;;;5103920;28;20035;-86
2023/03/15 06:52:34;;;;;;;5.40;1.07;;;0.60;99.90;;;;;;5106021;28;20038;-86
2023/03/15 06:55:00;;;;;;;5.30;1.20;;;0.60;99.90;;;;;;5107066;28;20036;-86
2023/03/15 06:57:25;;;;;;;3.43;0.90;;;0.70;99.90;;;;;;5107263;27;20072;-86
2023/03/15 06:59:52;;;;;;;7.90;1.10;;;0.70;99.90;;;;;;5105364;28;20046;-85
2023/03/15 07:02:18;;;;;;;2.97;1.10;;;0.80;99.90;;;;;;5112209;28;20040;-85
2023/03/15 07:04:44;;;;;;;5.90;1.50;;;0.90;99.90;;;;;;5094160;28;20127;-86
2023/03/15 07:07:10;;;;;;;4.33;1.10;;;1.00;99.90;;;;;;5126676;27;20051;-86
2023/03/15 07:09:36;;;;;;;4.20;1.47;;;1.10;99.90;;;;;;5104471;28;20036;-86
2023/03/15 07:12:02;;;;;;;7.50;1.33;;;1.20;99.90;;;;;;5111396;28;20046;-85
2023/03/15 07:14:27;;;;;;;5.43;1.10;;;1.30;99.90;;;;;;5103293;28;20036;-86
2023/03/15 07:16:53;;;;;;;6.53;1.40;;;1.40;99.90;;;;;;5094469;28;20059;-86
2023/03/15 07:19:18;;;;;;;7.90;1.27;;;1.50;99.90;;;;;;5088241;28;20036;-86
2023/03/15 07:21:44;;;;;;;8.23;1.67;;;1.60;99.90;;;;;;5103146;28;20123;-85
2023/03/15 07:24:09;;;;;;;6.00;1.20;;;1.70;99.90;;;;;;5142238;27;20043;-86
2023/03/15 07:26:35;;;;;;;7.13;1.27;;;1.80;99.90;;;;;;5085047;28;20040;-86
2023/03/15 07:29:01;;;;;;;7.17;1.33;;;1.90;99.90;;;;;;5128397;27;20387;-85
2023/03/15 07:31:26;;;;;;;4.77;1.57;;;2.00;99.90;;;;;;5102623;28;20074;-85
2023/03/15 07:33:52;;;;;;;5.17;1.20;;;2.10;99.90;;;;;;5128543;27;20039;-86
2023/03/15 07:36:18;;;;;;;4.87;1.83;;;2.90;99.90;;;;;;5104988;28;20036;-86
2023/03/15 07:38:43;;;;;;;6.67;1.23;;;2.30;99.90;;;;;;5137433;27;20051;-85
2023/03/15 07:41:09;;;;;;;6.40;1.87;;;2.30;99.90;;;;;;5091070;28;20044;-85
2023/03/15 07:43:34;;;;;;;7.70;1.53;;;2.50;99.90;;;;;;5085199;28;20064;-86
2023/03/15 07:46:00;;;;;;;8.83;1.50;;;2.50;99.90;;;;;;5109410;28;20114;-85
2023/03/15 07:48:28;;;;;;;4.47;1.50;;;2.70;99.90;;;;;;5090695;28;20063;-86
2023/03/15 07:50:54;;;;;;;7.43;1.53;;;2.70;99.90;;;;;;5120191;27;20043;-85
2023/03/15 07:53:20;;;;;;;8.15;1.90;;;2.90;99.90;;;;;;5107847;28;20486;-86
2023/03/15 07:55:48;;;;;;;6.38;1.58;;;3.00;99.90;;;;;;5104331;28;20119;-85
2023/03/15 07:58:14;;;;;;;9.65;1.60;;;3.20;99.90;;;;;;5138310;27;20403;-86
2023/03/15 08:00:40;;;;;;;7.03;1.67;;;3.20;99.90;;;;;;5110447;28;20027;-86
2023/03/15 08:03:06;;;;;;;7.75;2.28;;;3.30;99.90;;;;;;5111936;28;20043;-86
2023/03/15 08:05:32;;;;;;;7.05;1.58;;;3.50;99.90;;;;;;5125182;27;20494;-86
2023/03/15 08:07:58;;;;;;;6.47;1.42;;;3.60;99.90;;;;;;5111462;28;20551;-86
2023/03/15 08:10:24;;;;;;;8.38;1.60;;;3.70;99.90;;;;;;5094535;28;20114;-85
2023/03/15 08:12:50;;;;;;;6.80;1.58;;;3.80;99.90;;;;;;5103051;28;20146;-85
2023/03/15 08:15:16;;;;;;;6.90;1.73;;;4.00;99.90;;;;;;5090539;28;20034;-86
2023/03/15 08:17:42;;;;;;;7.32;1.30;;;3.90;99.90;;;;;;5104263;28;20047;-84
2023/03/15 08:20:19;;;;;;;10.82;2.17;;;4.00;99.90;;;;;;5108807;28;20032;-87
2023/03/15 08:22:46;;;;;;;10.60;1.63;;;4.10;99.90;;;;;;5089348;28;20040;-85
2023/03/15 08:25:14;;;;;;;7.13;2.17;;;4.20;99.90;;;;;;5089068;28;20050;-85
2023/03/15 08:27:43;;;;;;;10.20;1.85;;;4.30;99.90;;;;;;5084975;28;20380;-84
2023/03/15 08:30:11;;;;;;;9.77;1.73;;;4.40;99.90;;;;;;5105691;28;20031;-85
2023/03/15 08:32:41;;;;;;;7.40;1.70;;;4.50;99.90;;;;;;5106880;28;20032;-85
2023/03/15 08:35:08;;;;;;;8.98;1.90;;;4.50;99.90;;;;;;5103790;28;20043;-84
2023/03/15 08:37:33;;;;;;;6.63;1.38;;;4.60;99.90;;;;;;5102958;28;20043;-85
2023/03/15 08:40:08;;;;;;;6.65;1.70;;;4.70;99.90;;;;;;5111579;28;20041;-85
2023/03/15 08:42:34;;;;;;;4.85;1.50;;;4.80;99.90;;;;;;5136266;27;20594;-85
2023/03/15 08:45:00;;;;;;;8.88;1.23;;;4.90;99.90;;;;;;5093459;28;20499;-84
2023/03/15 08:47:26;;;;;;;3.83;1.25;;;4.90;99.90;;;;;;5121360;27;20148;-86
2023/03/15 08:49:52;;;;;;;5.18;1.05;;;5.10;99.90;;;;;;5103605;28;20475;-85
2023/03/15 08:52:18;;;;;;;5.88;1.30;;;5.10;99.90;;;;;;5141163;27;20126;-84
2023/03/15 08:54:44;;;;;;;11.05;1.75;;;5.10;99.90;;;;;;5085960;28;20560;-84
2023/03/15 08:57:11;;;;;;;3.92;1.10;;;5.20;99.90;;;;;;5143679;27;20035;-85
2023/03/15 08:59:37;;;;;;;6.97;1.30;;;5.40;99.90;;;;;;5102608;28;20047;-83
2023/03/15 09:02:03;;;;;;;8.88;1.20;;;5.40;99.90;;;;;;5110875;28;20032;-85
2023/03/15 09:04:29;;;;;;;7.35;1.20;;;5.40;99.90;;;;;;5103591;28;20073;-85
2023/03/15 09:06:54;;;;;;;5.20;1.63;;;5.40;99.90;;;;;;5102887;28;20410;-85
2023/03/15 09:09:20;;;;;;;7.03;1.10;;;5.50;99.90;;;;;;5139895;27;20043;-85
2023/03/15 09:11:45;;;;;;;6.40;1.30;;;5.50;99.90;;;;;;5092340;28;20031;-84
2023/03/15 09:14:11;;;;;;;7.22;1.40;;;5.60;99.90;;;;;;5106032;28;20040;-84
2023/03/15 09:16:36;;;;;;;5.20;1.40;;;5.70;99.90;;;;;;5101556;28;20057;-85
2023/03/15 09:19:02;;;;;;;6.93;1.40;;;5.80;99.90;;;;;;5136534;27;20104;-84
2023/03/15 09:21:28;;;;;;;4.13;1.10;;;5.80;99.90;;;;;;5103446;28;20570;-84
2023/03/15 09:23:53;;;;;;;6.55;0.90;;;5.80;99.90;;;;;;5128090;27;20107;-85
2023/03/15 09:26:19;;;;;;;5.20;1.10;;;5.90;99.90;;;;;;5105813;28;20046;-84
2023/03/15 09:28:45;;;;;;;6.55;1.15;;;5.80;99.90;;;;;;5109446;28;20067;-84
2023/03/15 09:31:10;;;;;;;7.07;1.10;;;5.90;99.90;;;;;;5143335;27;20039;-85
2023/03/15 09:33:36;;;;;;;7.93;1.27;;;6.00;99.90;;;;;;5136391;27;20519;-84
2023/03/15 09:36:02;;;;;;;7.90;1.10;;;6.00;99.90;;;;;;5111031;28;20043;-85
2023/03/15 09:38:27;;;;;;;5.03;1.20;;;6.10;99.90;;;;;;5083429;28;20047;-84
2023/03/15 09:41:00;;;;;;;7.07;1.25;;;6.20;99.90;;;;;;5102328;28;20035;-86
2023/03/15 09:43:53;;;;;;;4.00;1.10;;;6.30;99.90;;;;;;5105583;28;20444;-84
2023/03/15 09:46:28;;;;;;;6.03;1.15;;;6.50;99.90;;;;;;5102909;28;20124;-84
2023/03/15 09:49:20;;;;;;;6.82;1.63;;;6.50;99.90;;;;;;5104178;28;20040;-85
2023/03/15 09:51:53;;;;;;;4.35;1.10;;;6.60;99.90;;;;;;5094520;28;20053;-84
2023/03/15 09:54:28;;;;;;;6.57;0.98;;;6.60;99.90;;;;;;5126247;27;20044;-85
2023/03/15 09:57:09;;;;;;;4.72;0.93;;;6.70;99.90;;;;;;5109442;28;20391;-85
2023/03/15 09:59:41;;;;;;;4.70;1.00;;;6.70;99.90;;;;;;5090091;28;20067;-86
2023/03/15 10:02:23;;;;;;;3.42;1.20;;;6.80;99.90;;;;;;5091494;28;20036;-85
2023/03/15 10:04:54;;;;;;;8.52;1.35;;;6.90;99.90;;;;;;5101247;28;20127;-85
2023/03/15 10:07:20;;;;;;;6.03;1.20;;;6.90;99.90;;;;;;5108166;28;20163;-85
2023/03/15 10:09:46;;;;;;;7.28;1.25;;;6.90;99.90;;;;;;5090100;28;20063;-85
2023/03/15 10:12:14;;;;;;;7.72;1.45;;;7.00;99.90;;;;;;5103342;28;20443;-85
2023/03/15 10:15:20;;;;;;;9.38;1.08;;;7.10;99.90;;;;;;5091428;28;20058;-85
2023/03/15 10:18:08;;;;;;;4.25;0.85;;;7.20;99.90;;;;;;5102282;28;20039;-85
2023/03/15 10:20:41;;;;;;;9.48;1.20;;;7.20;99.90;;;;;;5102085;28;20185;-84
2023/03/15 10:23:19;;;;;;;7.40;1.27;;;7.10;99.90;;;;;;5107566;28;20046;-83
2023/03/15 10:25:47;;;;;;;8.88;1.25;;;7.20;99.90;;;;;;5100028;28;20066;-87
2023/03/15 10:28:24;;;;;;;6.38;1.17;;;7.40;99.90;;;;;;5091789;28;20035;-86
2023/03/15 10:30:51;;;;;;;10.05;1.23;;;7.30;99.90;;;;;;5105307;28;20442;-84
2023/03/15 10:33:47;;;;;;;6.53;1.15;;;7.30;99.90;;;;;;5098443;28;20046;-85
2023/03/15 10:36:23;;;;;;;5.60;1.30;;;7.50;99.90;;;;;;5113486;27;20048;-84
2023/03/15 10:38:49;;;;;;;5.55;1.00;;;7.50;99.90;;;;;;5124102;27;20044;-83
2023/03/15 10:41:37;;;;;;;9.73;1.77;;;7.40;99.90;;;;;;5128452;27;20088;-85
2023/03/15 10:44:06;;;;;;;8.07;1.40;;;7.10;99.90;;;;;;5101106;28;20119;-84
2023/03/15 10:46:34;;;;;;;9.15;1.67;;;7.00;99.90;;;;;;5111496;28;20035;-84
2023/03/15 10:49:11;;;;;;;4.82;1.40;;;7.10;99.90;;;;;;5123382;27;20115;-85
2023/03/15 10:51:43;;;;;;;6.32;1.10;;;7.30;99.90;;;;;;5093142;28;20031;-85
2023/03/15 10:54:22;;;;;;;5.55;1.40;;;7.50;99.90;;;;;;5106290;28;20046;-84
2023/03/15 10:57:14;;;;;;;6.47;1.10;;;7.60;99.90;;;;;;5112834;28;20048;-83
2023/03/15 10:59:57;;;;;;;7.65;1.52;;;7.70;99.90;;;;;;5088052;28;20036;-84
2023/03/15 11:02:24;;;;;;;5.35;1.20;;;7.90;99.90;;;;;;5091002;28;20467;-84
2023/03/15 11:05:00;;;;;;;5.55;1.20;;;7.90;99.90;;;;;;5109834;28;20038;-83
2023/03/15 11:07:26;;;;;;;5.53;1.27;;;8.10;99.90;;;;;;5105356;28;20039;-83
2023/03/15 11:09:57;;;;;;;7.80;1.17;;;8.10;99.90;;;;;;5135227;27;20044;-85
2023/03/15 11:12:25;;;;;;;5.18;1.17;;;8.00;99.90;;;;;;5112856;27;20063;-83
2023/03/15 11:14:56;;;;;;;5.20;1.20;;;7.90;99.90;;;;;;5115221;27;20044;-84
2023/03/15 11:17:26;;;;;;;6.25;1.05;;;7.70;99.90;;;;;;5112958;27;20479;-84
2023/03/15 11:20:10;;;;;;;5.15;1.20;;;7.50;99.90;;;;;;5094549;28;20403;-84
2023/03/15 11:22:36;;;;;;;7.30;1.17;;;7.50;99.90;;;;;;5115887;27;20060;-84
2023/03/15 11:25:01;;;;;;;4.38;1.05;;;7.80;99.90;;;;;;5096797;27;20038;-84
2023/03/15 11:27:28;;;;;;;6.13;1.20;;;7.90;99.90;;;;;;5107351;28;20099;-83
2023/03/15 11:29:58;;;;;;;4.18;1.40;;;8.20;99.90;;;;;;5106992;28;20410;-84
2023/03/15 11:32:26;;;;;;;5.95;1.20;;;8.40;99.90;;;;;;5111032;28;20031;-83
2023/03/15 11:35:06;;;;;;;3.85;0.88;;;8.50;99.90;;;;;;5109645;28;20062;-83
2023/03/15 11:37:39;;;;;;;5.60;1.10;;;8.60;99.90;;;;;;5112387;28;20039;-84
2023/03/15 11:40:21;;;;;;;4.75;1.05;;;8.40;99.90;;;;;;5113592;28;20036;-83
2023/03/15 11:42:57;;;;;;;8.02;1.40;;;8.60;99.90;;;;;;5112192;28;20032;-85
2023/03/15 11:46:04;;;;;;;5.85;1.30;;;8.80;99.90;;;;;;5089392;27;20076;-82
2023/03/15 11:48:39;;;;;;;4.25;0.88;;;9.00;99.90;;;;;;5092423;27;20050;-83
2023/03/15 11:51:06;;;;;;;5.15;1.08;;;9.20;99.90;;;;;;5107339;27;20056;-84
2023/03/15 11:53:42;;;;;;;5.68;1.30;;;9.30;99.90;;;;;;5107859;28;20039;-84
2023/03/15 11:56:24;;;;;;;5.35;1.10;;;9.20;99.90;;;;;;5137347;27;20110;-85
2023/03/15 11:59:11;;;;;;;3.67;0.98;;;9.20;99.90;;;;;;5093765;28;20055;-84
2023/03/15 12:01:44;;;;;;;6.50;0.88;;;9.10;99.90;;;;;;5112027;27;20055;-84
2023/03/15 12:04:26;;;;;;;6.45;1.27;;;9.10;99.90;;;;;;5115056;27;20044;-85
2023/03/15 12:06:55;;;;;;;5.25;1.30;;;9.20;99.90;;;;;;5107157;27;20040;-84
2023/03/15 12:09:36;;;;;;;5.78;1.50;;;9.30;99.90;;;;;;5105616;28;20446;-84
2023/03/15 12:12:25;;;;;;;4.47;1.38;;;9.40;99.90;;;;;;5105095;28;20068;-84
2023/03/15 12:15:13;;;;;;;4.72;1.13;;;9.50;99.90;;;;;;5131022;27;20043;-84
2023/03/15 12:17:49;;;;;;;4.72;1.08;;;9.50;99.90;;;;;;5111302;27;20039;-84
2023/03/15 12:20:16;;;;;;;3.75;0.98;;;9.50;99.90;;;;;;5113598;27;20063;-84
2023/03/15 12:22:51;;;;;;;4.75;1.38;;;9.50;99.40;;;;;;5104957;28;20051;-85
2023/03/15 12:25:37;;;;;;;5.65;1.00;;;9.50;99.40;;;;;;5108503;28;20032;-84
2023/03/15 12:28:17;;;;;;;2.97;0.88;;;9.60;98.70;;;;;;5101612;28;20344;-84
2023/03/15 12:30:44;;;;;;;4.80;1.05;;;9.60;99.80;;;;;;5105724;28;20044;-84
2023/03/15 12:33:16;;;;;;;6.82;1.35;;;9.70;99.50;;;;;;5093740;28;20059;-85
2023/03/15 12:35:42;;;;;;;5.30;1.10;;;9.90;99.90;;;;;;5125604;27;20040;-86
2023/03/15 12:38:21;;;;;;;6.78;1.50;;;9.90;99.90;;;;;;5086677;28;20165;-84
2023/03/15 12:40:53;;;;;;;7.15;1.20;;;10.00;99.90;;;;;;5088430;28;20044;-85
2023/03/15 12:43:44;;;;;;;5.35;1.05;;;10.00;99.90;;;;;;5092653;28;20036;-84
2023/03/15 12:46:37;;;;;;;4.22;0.93;;;10.00;98.10;;;;;;5100895;28;20031;-84
2023/03/15 12:49:12;;;;;;;4.20;1.15;;;10.00;99.40;;;;;;5084805;28;20040;-85
2023/03/15 12:51:57;;;;;;;3.80;0.93;;;10.10;97.40;;;;;;5106673;28;20054;-86
2023/03/15 12:54:27;;;;;;;7.22;1.10;;;10.10;98.40;;;;;;5103291;28;20528;-84
2023/03/15 12:57:00;;;;;;;5.45;1.50;;;10.00;98.30;;;;;;5102940;28;20043;-85
2023/03/15 12:59:43;;;;;;;4.97;1.30;;;9.50;98.00;;;;;;5108073;27;20601;-86
2023/03/15 13:02:30;;;;;;;5.10;1.10;;;9.30;99.20;;;;;;5103759;28;20052;-86
2023/03/15 13:05:16;;;;;;;4.47;1.25;;;9.60;99.90;;;;;;5132421;27;20403;-85
2023/03/15 13:08:21;;;;;;;6.65;1.10;;;9.80;99.00;;;;;;5101401;28;20032;-85
2023/03/15 13:10:49;;;;;;;4.80;1.58;;;9.90;98.40;;;;;;5032346;28;20607;-85
2023/03/15 13:13:31;;;;;;;4.97;1.00;;;10.10;98.60;;;;;;5097039;28;20052;-84
2023/03/15 13:16:28;;;;;;;4.15;0.73;;;10.20;99.30;;;;;;5088729;28;20035;-83
2023/03/15 13:19:10;;;;;;;5.90;1.10;;;10.30;99.40;;;;;;5110712;28;20456;-84
2023/03/15 13:22:00;;;;;;;6.35;0.93;;;10.60;98.70;;;;;;5133921;27;20039;-84
2023/03/15 13:24:46;;;;;;;6.38;1.25;;;10.60;97.40;;;;;;5085191;28;20122;-86
2023/03/15 13:27:49;;;;;;;6.63;1.30;;;10.50;98.10;;;;;;5100754;28;20035;-85
2023/03/15 13:30:36;;;;;;;5.65;1.38;;;9.70;98.80;;;;;;5068775;28;20092;-85
2023/03/15 13:33:06;;;;;;;7.00;1.38;;;9.30;99.90;;;;;;5141711;27;20111;-84